Time;durP1;ratioP1;P1;durP2;ratioP2;P2;SDS_P1;SDS_P2;PMS_P1;PMS_P2;Temp;Humidity;BMP_temperature;BMP_pressure;BME280_temperature;BME280_humidity;BME280_pressure;Samples;Min_cycle;Max_cycle;Signal;HPM_P1;HPM_P2
2022/03/18 00:00:49;;;;;;;48.73;27.13;;;5.80;99.90;;;;;;2065136;28;20685;-77
2022/03/18 00:01:50;;;;;;;44.93;25.93;;;5.90;99.90;;;;;;2064093;28;20658;-78
2022/03/18 00:02:53;;;;;;;50.70;27.47;;;5.90;99.90;;;;;;2058708;28;20612;-77
2022/03/18 00:03:53;;;;;;;59.00;28.63;;;5.90;99.90;;;;;;2057496;28;20278;-76
2022/03/18 00:04:54;;;;;;;63.93;30.83;;;5.80;99.90;;;;;;2064164;28;20189;-77
2022/03/18 00:05:55;;;;;;;50.05;25.92;;;5.90;99.90;;;;;;2065118;28;20179;-77
2022/03/18 00:06:56;;;;;;;43.37;24.33;;;5.90;99.90;;;;;;2072576;28;20189;-77
2022/03/18 00:07:57;;;;;;;47.03;25.50;;;5.80;99.90;;;;;;2064375;28;20179;-78
2022/03/18 00:08:57;;;;;;;54.30;28.13;;;5.80;99.90;;;;;;2056310;28;20995;-77
2022/03/18 00:09:58;;;;;;;50.47;25.67;;;5.70;99.90;;;;;;2056876;28;20187;-76
2022/03/18 00:10:58;;;;;;;50.37;25.10;;;5.80;99.90;;;;;;2057008;28;20176;-76
2022/03/18 00:11:59;;;;;;;46.37;25.57;;;5.80;99.90;;;;;;2064605;28;20678;-77
2022/03/18 00:13:00;;;;;;;44.50;24.50;;;5.80;99.90;;;;;;2064516;28;20681;-77
2022/03/18 00:14:03;;;;;;;43.73;23.73;;;5.80;99.90;;;;;;2056541;28;20190;-77
2022/03/18 00:15:07;;;;;;;49.75;26.17;;;5.80;99.90;;;;;;2064720;28;20187;-77
2022/03/18 00:16:08;;;;;;;43.88;24.52;;;5.70;99.90;;;;;;2064820;28;20609;-77
2022/03/18 00:17:10;;;;;;;45.80;24.70;;;5.60;99.90;;;;;;2064898;28;20213;-77
2022/03/18 00:18:11;;;;;;;43.75;24.13;;;5.60;99.90;;;;;;2064631;28;20186;-76
2022/03/18 00:19:12;;;;;;;50.80;24.80;;;5.70;99.90;;;;;;2064803;28;20189;-77
2022/03/18 00:20:13;;;;;;;53.25;26.13;;;5.60;99.90;;;;;;2064447;28;20202;-77
2022/03/18 00:21:14;;;;;;;48.42;24.80;;;5.70;99.90;;;;;;2064251;28;20214;-77
2022/03/18 00:22:16;;;;;;;44.50;24.17;;;5.70;99.90;;;;;;2064659;28;20186;-77
2022/03/18 00:23:16;;;;;;;46.63;24.20;;;5.80;99.90;;;;;;2056306;28;20218;-77
2022/03/18 00:24:17;;;;;;;45.17;22.73;;;5.80;99.90;;;;;;2064595;28;20182;-77
2022/03/18 00:25:19;;;;;;;37.47;21.93;;;5.70;99.90;;;;;;2065141;28;20554;-77
2022/03/18 00:26:19;;;;;;;41.25;23.40;;;5.80;99.90;;;;;;2065185;28;20186;-77
2022/03/18 00:27:20;;;;;;;52.37;24.97;;;5.80;99.90;;;;;;2065060;28;20217;-77
2022/03/18 00:28:21;;;;;;;52.70;25.83;;;5.90;99.90;;;;;;2065920;28;20697;-77
2022/03/18 00:29:21;;;;;;;50.23;25.70;;;5.90;99.90;;;;;;2056654;28;20198;-77
2022/03/18 00:30:22;;;;;;;57.13;26.20;;;5.90;99.90;;;;;;2056964;28;20322;-76
2022/03/18 00:31:23;;;;;;;45.90;23.53;;;5.90;99.90;;;;;;2065900;28;20191;-76
2022/03/18 00:32:24;;;;;;;31.65;19.10;;;5.80;99.90;;;;;;2066804;28;20895;-76
2022/03/18 00:33:25;;;;;;;42.87;22.57;;;5.80;99.90;;;;;;2065660;28;20198;-75
2022/03/18 00:34:26;;;;;;;38.67;21.73;;;5.80;99.90;;;;;;2057774;28;20937;-76
2022/03/18 00:35:26;;;;;;;42.40;22.80;;;5.90;99.90;;;;;;2057824;28;20422;-75
2022/03/18 00:36:27;;;;;;;55.20;25.10;;;5.90;99.90;;;;;;2057957;28;20293;-76
2022/03/18 00:37:28;;;;;;;43.13;23.53;;;5.90;99.90;;;;;;2058098;28;20218;-76
2022/03/18 00:38:29;;;;;;;47.70;24.77;;;5.90;99.90;;;;;;2058280;28;20199;-76
2022/03/18 00:39:30;;;;;;;33.17;19.60;;;5.90;99.90;;;;;;2058063;28;20222;-76
2022/03/18 00:40:32;;;;;;;39.17;20.77;;;5.70;99.90;;;;;;2057981;28;20175;-76
2022/03/18 00:41:33;;;;;;;47.38;25.42;;;5.60;99.90;;;;;;2057004;28;20510;-76
2022/03/18 00:42:35;;;;;;;44.17;21.48;;;5.60;99.90;;;;;;2058111;28;20884;-76
2022/03/18 00:43:35;;;;;;;53.92;24.50;;;5.70;99.90;;;;;;2057812;28;20241;-76
2022/03/18 00:44:37;;;;;;;46.53;23.87;;;5.60;99.90;;;;;;2058038;28;20186;-76
2022/03/18 00:45:37;;;;;;;48.28;23.10;;;5.60;99.90;;;;;;2066311;28;20258;-76
2022/03/18 00:46:38;;;;;;;49.80;23.73;;;5.70;99.90;;;;;;2066231;28;20186;-76
2022/03/18 00:52:56;;;;;;;47.15;24.98;;;5.80;99.90;;;;;;2065793;28;20651;-76
2022/03/18 00:53:57;;;;;;;63.73;27.30;;;5.80;99.90;;;;;;2060004;28;20265;-76
2022/03/18 00:54:57;;;;;;;47.57;22.90;;;5.80;99.90;;;;;;2065593;28;20721;-76
2022/03/18 00:55:58;;;;;;;64.97;28.43;;;5.80;99.90;;;;;;2066047;28;20692;-76
2022/03/18 00:56:59;;;;;;;43.33;22.20;;;5.80;99.90;;;;;;2057698;28;20733;-76
2022/03/18 00:58:00;;;;;;;47.15;23.65;;;5.70;99.90;;;;;;2058200;28;20681;-76
2022/03/18 00:59:00;;;;;;;70.77;23.57;;;5.60;99.90;;;;;;2057427;28;20226;-76
2022/03/18 01:00:01;;;;;;;45.23;23.07;;;5.40;99.90;;;;;;2058067;28;20175;-76
2022/03/18 01:01:03;;;;;;;59.53;25.20;;;5.40;99.90;;;;;;2057355;28;20207;-76
2022/03/18 01:02:04;;;;;;;99.60;27.30;;;5.60;99.90;;;;;;2058026;28;20234;-76
2022/03/18 01:03:06;;;;;;;85.97;28.23;;;5.70;99.90;;;;;;2065745;28;20214;-76
2022/03/18 01:04:07;;;;;;;62.78;26.35;;;5.70;99.90;;;;;;2066968;28;20185;-77
2022/03/18 01:05:08;;;;;;;89.87;33.03;;;5.70;99.90;;;;;;2066177;28;20549;-76
2022/03/18 01:06:09;;;;;;;60.00;23.70;;;5.70;99.90;;;;;;2049503;28;20675;-77
2022/03/18 01:07:09;;;;;;;74.53;25.67;;;5.70;99.90;;;;;;2057372;28;20183;-76
2022/03/18 01:08:10;;;;;;;70.10;26.50;;;5.70;99.90;;;;;;2065733;28;20179;-76
2022/03/18 01:09:11;;;;;;;52.30;23.87;;;5.80;99.90;;;;;;2065620;28;20194;-76
2022/03/18 01:10:12;;;;;;;62.65;24.98;;;5.70;99.90;;;;;;2057511;28;20746;-76
2022/03/18 01:11:13;;;;;;;64.77;26.77;;;5.70;99.90;;;;;;2065099;28;20186;-76
2022/03/18 01:12:13;;;;;;;49.43;22.73;;;5.80;99.90;;;;;;2066385;28;20193;-76
2022/03/18 01:13:14;;;;;;;53.60;25.07;;;5.60;99.90;;;;;;2065658;28;20885;-76
2022/03/18 01:14:16;;;;;;;65.37;26.40;;;5.50;99.90;;;;;;2049620;28;20790;-76
2022/03/18 01:15:16;;;;;;;88.68;28.65;;;5.50;99.90;;;;;;2057894;28;20230;-76
2022/03/18 01:16:17;;;;;;;56.23;24.30;;;5.60;99.90;;;;;;2066261;28;20825;-76
2022/03/18 01:17:18;;;;;;;49.63;24.37;;;5.80;99.90;;;;;;2065971;28;20657;-76
2022/03/18 01:18:19;;;;;;;62.42;27.35;;;5.80;99.90;;;;;;2057559;28;20187;-76
2022/03/18 01:19:20;;;;;;;72.40;25.20;;;5.90;99.90;;;;;;2057175;28;20673;-76
2022/03/18 01:20:20;;;;;;;113.77;31.07;;;6.00;99.90;;;;;;2065594;28;20186;-77
2022/03/18 01:21:21;;;;;;;89.90;28.53;;;6.00;99.90;;;;;;2065515;28;20313;-77
2022/03/18 01:22:22;;;;;;;70.83;28.33;;;5.90;99.90;;;;;;2066133;28;20187;-76
2022/03/18 01:23:23;;;;;;;71.40;28.70;;;5.90;99.90;;;;;;2065751;28;20198;-76
2022/03/18 01:24:23;;;;;;;103.40;27.73;;;6.00;99.90;;;;;;2065788;28;20253;-76
2022/03/18 01:25:24;;;;;;;83.30;27.60;;;5.90;99.90;;;;;;2058001;28;20210;-76
2022/03/18 01:26:25;;;;;;;111.67;28.47;;;5.80;99.90;;;;;;2065696;28;20233;-76
2022/03/18 01:27:25;;;;;;;151.00;34.00;;;5.90;99.90;;;;;;2066059;28;20186;-76
2022/03/18 01:28:30;;;;;;;81.37;30.90;;;5.80;99.90;;;;;;2065983;28;20433;-76
2022/03/18 01:29:30;;;;;;;106.55;33.72;;;5.90;99.90;;;;;;2073571;28;20193;-76
2022/03/18 01:30:31;;;;;;;114.40;32.70;;;5.90;99.90;;;;;;2066139;28;20190;-76
2022/03/18 01:31:32;;;;;;;147.40;32.30;;;5.90;99.90;;;;;;2057149;28;20246;-76
2022/03/18 01:32:33;;;;;;;88.47;27.63;;;5.90;99.90;;;;;;2049604;28;20694;-76
2022/03/18 01:33:36;;;;;;;150.90;33.42;;;5.80;99.90;;;;;;2041986;28;20672;-76
2022/03/18 01:34:36;;;;;;;127.55;32.45;;;5.90;99.90;;;;;;2057858;28;20190;-76
2022/03/18 01:35:37;;;;;;;215.80;36.20;;;5.90;99.90;;;;;;2066348;28;20178;-77
2022/03/18 01:36:38;;;;;;;191.30;33.47;;;5.90;99.90;;;;;;2065396;28;20341;-76
2022/03/18 01:37:38;;;;;;;155.97;34.47;;;5.80;99.90;;;;;;2065548;28;20202;-76
2022/03/18 01:38:39;;;;;;;73.57;26.23;;;5.80;99.90;;;;;;2073284;28;20178;-76
2022/03/18 01:39:40;;;;;;;168.67;37.00;;;5.70;99.90;;;;;;2065691;28;20213;-76
2022/03/18 01:40:40;;;;;;;51.40;24.80;;;5.70;99.90;;;;;;2064915;28;20222;-76
2022/03/18 01:41:42;;;;;;;56.23;24.93;;;5.80;99.90;;;;;;2065315;28;20186;-77
2022/03/18 01:42:43;;;;;;;52.50;24.13;;;5.80;99.90;;;;;;2057440;28;20645;-76
2022/03/18 01:43:46;;;;;;;46.20;22.43;;;5.80;99.90;;;;;;2057522;28;20230;-76
2022/03/18 01:44:47;;;;;;;42.00;22.35;;;5.70;99.90;;;;;;2057961;28;20625;-76
2022/03/18 01:45:49;;;;;;;87.80;31.55;;;5.70;99.90;;;;;;2057796;28;20698;-76
2022/03/18 01:46:49;;;;;;;81.50;30.90;;;5.50;99.90;;;;;;2058058;28;20167;-77
2022/03/18 01:47:50;;;;;;;58.13;26.40;;;5.30;99.90;;;;;;2057732;28;20187;-76
2022/03/18 01:48:52;;;;;;;81.60;31.20;;;5.40;99.90;;;;;;2057812;28;20178;-77
2022/03/18 01:49:53;;;;;;;59.13;26.67;;;5.40;99.90;;;;;;2065733;28;20182;-77
2022/03/18 01:50:53;;;;;;;47.17;23.67;;;5.40;99.90;;;;;;2065939;28;20187;-77
2022/03/18 01:51:54;;;;;;;45.97;23.67;;;5.50;99.90;;;;;;2065196;28;20189;-77
2022/03/18 01:52:55;;;;;;;72.50;28.93;;;5.50;99.90;;;;;;2057720;28;20213;-77
2022/03/18 01:55:16;;;;;;;56.97;25.15;;;5.70;99.90;;;;;;2059900;28;20187;-77
2022/03/18 01:56:16;;;;;;;48.55;23.80;;;5.70;99.90;;;;;;2067692;28;20728;-76
2022/03/18 01:57:24;;;;;;;80.17;29.83;;;5.70;99.90;;;;;;2064687;28;20190;-77
2022/03/18 01:58:24;;;;;;;54.90;25.25;;;5.80;99.90;;;;;;2057595;28;20174;-77
2022/03/18 01:59:25;;;;;;;69.00;27.07;;;5.70;99.90;;;;;;2049100;29;20619;-77
2022/03/18 02:00:26;;;;;;;57.13;26.93;;;5.70;99.90;;;;;;2062261;28;20197;-77
2022/03/18 02:01:26;;;;;;;58.40;25.40;;;5.70;99.90;;;;;;2064342;28;20580;-77
2022/03/18 02:02:27;;;;;;;120.67;33.43;;;5.70;99.90;;;;;;2057313;28;20183;-77
2022/03/18 02:03:28;;;;;;;101.00;31.37;;;5.70;99.90;;;;;;2065677;28;20229;-77
2022/03/18 02:04:29;;;;;;;115.53;30.73;;;5.70;99.90;;;;;;2073634;28;20197;-76
2022/03/18 02:05:31;;;;;;;80.85;28.63;;;5.80;99.90;;;;;;2065651;28;20258;-77
2022/03/18 02:06:32;;;;;;;87.75;30.27;;;5.80;99.90;;;;;;2065356;28;20179;-77
2022/03/18 02:07:33;;;;;;;69.90;27.52;;;5.80;99.90;;;;;;2073947;28;20237;-77
2022/03/18 02:08:34;;;;;;;94.17;32.30;;;5.80;99.90;;;;;;2065438;28;20185;-77
2022/03/18 02:09:37;;;;;;;69.82;27.52;;;5.80;99.90;;;;;;2065306;28;20715;-77
2022/03/18 02:10:38;;;;;;;68.60;29.42;;;5.70;99.90;;;;;;2065867;28;20229;-77
2022/03/18 02:11:39;;;;;;;65.57;29.67;;;5.60;99.90;;;;;;2063750;28;20190;-77
2022/03/18 02:12:41;;;;;;;62.30;29.27;;;5.70;99.90;;;;;;2064192;28;20200;-77
2022/03/18 02:13:41;;;;;;;58.67;27.63;;;5.70;99.90;;;;;;2056171;28;20182;-76
2022/03/18 02:14:45;;;;;;;66.73;30.47;;;5.60;99.90;;;;;;2056365;28;20252;-77
2022/03/18 02:15:46;;;;;;;69.95;30.45;;;5.60;99.90;;;;;;2056623;28;20211;-77
2022/03/18 02:16:47;;;;;;;63.53;31.13;;;5.50;99.90;;;;;;2063853;28;20741;-77
2022/03/18 02:17:47;;;;;;;56.33;30.33;;;5.60;99.90;;;;;;2064806;28;20186;-77
2022/03/18 02:18:48;;;;;;;63.67;30.37;;;5.60;99.90;;;;;;2064739;28;20197;-77
2022/03/18 02:19:49;;;;;;;57.13;29.07;;;5.60;99.90;;;;;;2063935;28;20193;-77
2022/03/18 02:20:50;;;;;;;56.03;28.33;;;5.70;99.90;;;;;;2063773;28;21049;-77
2022/03/18 02:21:54;;;;;;;59.43;27.93;;;5.60;99.90;;;;;;2063441;28;20191;-77
2022/03/18 02:22:55;;;;;;;63.00;30.75;;;5.40;99.90;;;;;;2072185;28;20263;-77
2022/03/18 02:23:58;;;;;;;56.67;28.47;;;5.40;99.90;;;;;;2071692;28;20188;-77
2022/03/18 02:24:58;;;;;;;58.55;29.20;;;5.40;99.90;;;;;;2072178;28;20186;-77
2022/03/18 02:25:59;;;;;;;52.90;28.67;;;5.50;99.90;;;;;;2064046;28;20198;-77
2022/03/18 02:26:59;;;;;;;59.77;30.30;;;5.60;99.90;;;;;;2056182;28;20179;-77
2022/03/18 02:28:03;;;;;;;58.33;30.80;;;5.50;99.90;;;;;;2048031;29;20187;-77
2022/03/18 02:29:03;;;;;;;66.03;32.10;;;5.50;99.90;;;;;;2048554;28;20199;-76
2022/03/18 02:30:06;;;;;;;64.97;31.40;;;5.40;99.90;;;;;;2063889;28;20302;-77
2022/03/18 02:31:07;;;;;;;62.53;30.63;;;5.40;99.90;;;;;;2063620;28;20190;-78
2022/03/18 02:32:09;;;;;;;78.20;35.20;;;5.40;99.90;;;;;;2064012;28;20936;-77
2022/03/18 02:33:11;;;;;;;64.25;30.08;;;5.40;99.90;;;;;;2064152;28;20198;-77
2022/03/18 02:34:12;;;;;;;70.57;33.33;;;5.40;99.90;;;;;;2056081;28;20229;-77
2022/03/18 02:35:13;;;;;;;76.70;33.03;;;5.50;99.90;;;;;;2064118;28;20185;-77
2022/03/18 02:36:13;;;;;;;81.10;34.23;;;5.30;99.90;;;;;;2064000;28;20442;-77
2022/03/18 02:37:14;;;;;;;56.07;29.90;;;5.10;99.90;;;;;;2064136;28;20186;-77
2022/03/18 02:38:15;;;;;;;66.87;32.67;;;5.20;99.90;;;;;;2064080;28;20205;-77
2022/03/18 02:39:16;;;;;;;70.57;31.17;;;5.20;99.90;;;;;;2063757;28;20186;-77
2022/03/18 02:40:16;;;;;;;64.20;30.83;;;5.30;99.90;;;;;;2063905;28;20248;-77
2022/03/18 02:41:17;;;;;;;70.83;33.00;;;5.40;99.90;;;;;;2063290;28;20292;-77
2022/03/18 02:42:18;;;;;;;73.63;31.50;;;5.50;99.90;;;;;;2063956;28;20182;-77
2022/03/18 02:43:19;;;;;;;64.30;30.73;;;5.50;99.90;;;;;;2055856;28;20218;-78
2022/03/18 02:44:20;;;;;;;59.80;29.77;;;5.50;99.90;;;;;;2055908;28;20327;-77
2022/03/18 02:45:21;;;;;;;69.53;31.80;;;5.50;99.90;;;;;;2063945;28;20174;-77
2022/03/18 02:46:21;;;;;;;75.63;34.10;;;5.60;99.90;;;;;;2063981;28;20201;-77
2022/03/18 02:47:24;;;;;;;68.73;30.87;;;5.60;99.90;;;;;;2063959;28;20193;-77
2022/03/18 02:48:25;;;;;;;65.47;29.58;;;5.60;99.90;;;;;;2064043;28;20268;-77
2022/03/18 02:49:25;;;;;;;55.40;28.43;;;5.60;99.90;;;;;;2055978;28;20194;-77
2022/03/18 02:50:26;;;;;;;54.07;26.83;;;5.70;99.90;;;;;;2064027;28;20178;-77
2022/03/18 02:51:27;;;;;;;61.27;28.10;;;5.60;99.90;;;;;;2055249;28;20232;-77
2022/03/18 02:52:28;;;;;;;75.05;29.63;;;5.50;99.90;;;;;;2047943;28;20210;-78
2022/03/18 02:53:29;;;;;;;81.73;32.97;;;5.40;99.90;;;;;;2055431;28;20198;-77
2022/03/18 02:54:29;;;;;;;63.83;28.43;;;5.50;99.90;;;;;;2055727;28;20183;-77
2022/03/18 02:55:30;;;;;;;55.53;26.97;;;5.50;99.90;;;;;;2063935;28;20185;-77
2022/03/18 02:56:32;;;;;;;51.47;25.37;;;5.50;99.90;;;;;;2064028;28;20185;-77
2022/03/18 02:57:33;;;;;;;67.45;29.30;;;5.60;99.90;;;;;;2055771;28;20662;-77
2022/03/18 02:58:37;;;;;;;54.57;27.03;;;5.70;99.90;;;;;;2063993;28;20181;-77
2022/03/18 02:59:39;;;;;;;62.78;28.00;;;5.70;99.90;;;;;;2064079;28;20316;-77
2022/03/18 03:00:39;;;;;;;53.80;25.73;;;5.70;99.90;;;;;;2063426;28;20792;-77
2022/03/18 03:01:40;;;;;;;49.07;24.50;;;5.70;99.90;;;;;;2047141;29;20194;-77
2022/03/18 03:02:41;;;;;;;94.77;31.03;;;5.80;99.90;;;;;;2063667;28;20241;-77
2022/03/18 03:03:41;;;;;;;99.03;33.30;;;5.70;99.90;;;;;;2072117;28;20182;-78
2022/03/18 03:08:39;;;;;;;109.00;30.90;;;5.60;99.90;;;;;;2064568;28;20633;-77
2022/03/18 03:09:40;;;;;;;77.67;25.20;;;5.50;99.90;;;;;;2063809;28;20194;-77
2022/03/18 03:10:43;;;;;;;76.43;26.53;;;5.50;99.90;;;;;;2063949;28;20190;-78
2022/03/18 03:11:46;;;;;;;88.13;24.25;;;5.50;99.90;;;;;;2071242;28;20212;-77
2022/03/18 03:12:47;;;;;;;92.18;27.75;;;5.40;99.90;;;;;;2063699;28;20214;-77
2022/03/18 03:13:48;;;;;;;74.27;27.60;;;5.40;99.90;;;;;;2063702;28;20209;-78
2022/03/18 03:14:48;;;;;;;47.53;22.07;;;5.40;99.90;;;;;;2063880;28;20197;-77
2022/03/18 03:15:50;;;;;;;79.37;25.17;;;5.40;99.90;;;;;;2063841;28;20216;-77
2022/03/18 03:16:50;;;;;;;82.75;23.55;;;5.40;99.90;;;;;;2063893;28;20558;-77
2022/03/18 03:17:51;;;;;;;243.07;34.70;;;5.40;99.90;;;;;;2063855;28;20200;-77
2022/03/18 03:18:52;;;;;;;109.63;28.27;;;5.40;99.90;;;;;;2064012;28;20464;-77
2022/03/18 03:19:54;;;;;;;101.78;26.58;;;5.40;99.90;;;;;;2054109;28;20278;-77
2022/03/18 03:20:56;;;;;;;68.30;24.25;;;5.40;99.90;;;;;;2055944;28;20761;-76
2022/03/18 03:21:56;;;;;;;108.93;29.92;;;5.40;99.90;;;;;;2063424;28;20182;-77
2022/03/18 03:22:57;;;;;;;68.73;22.83;;;5.40;99.90;;;;;;2063575;28;20571;-77
2022/03/18 03:24:02;;;;;;;141.93;33.30;;;5.40;99.90;;;;;;2055831;28;20175;-78
2022/03/18 03:25:04;;;;;;;85.40;24.25;;;5.50;99.90;;;;;;2055113;28;20185;-77
2022/03/18 03:26:05;;;;;;;77.45;24.85;;;5.50;99.90;;;;;;2063728;28;20878;-77
2022/03/18 03:27:05;;;;;;;65.50;22.60;;;5.50;99.90;;;;;;2055802;28;20182;-77
2022/03/18 03:28:06;;;;;;;58.60;22.73;;;5.30;99.90;;;;;;2063788;28;20182;-77
2022/03/18 03:29:07;;;;;;;56.57;21.57;;;5.40;99.90;;;;;;2064423;28;20179;-77
2022/03/18 03:30:09;;;;;;;49.47;21.30;;;5.30;99.90;;;;;;2063823;28;20179;-77
2022/03/18 03:31:11;;;;;;;58.95;21.40;;;5.40;99.90;;;;;;2055494;28;20205;-77
2022/03/18 03:32:12;;;;;;;67.97;21.33;;;5.40;99.90;;;;;;2063815;28;20213;-76
2022/03/18 03:33:13;;;;;;;51.77;21.37;;;5.40;99.90;;;;;;2064310;28;20201;-77
2022/03/18 03:34:14;;;;;;;53.15;21.33;;;5.40;99.90;;;;;;2063962;28;20186;-76
2022/03/18 03:35:16;;;;;;;37.17;18.73;;;5.40;99.90;;;;;;2063924;28;20190;-77
2022/03/18 03:36:16;;;;;;;59.53;21.00;;;5.40;99.90;;;;;;2063998;28;20201;-76
2022/03/18 03:37:17;;;;;;;47.23;20.67;;;5.30;99.90;;;;;;2063833;28;20571;-76
2022/03/18 03:38:18;;;;;;;64.47;20.77;;;5.30;99.90;;;;;;2063807;28;20661;-77
2022/03/18 03:39:19;;;;;;;45.40;20.35;;;5.20;99.90;;;;;;2063908;28;20201;-76
2022/03/18 03:40:19;;;;;;;61.97;22.13;;;5.30;99.90;;;;;;2063446;28;20196;-76
2022/03/18 03:41:21;;;;;;;76.23;26.20;;;5.20;99.90;;;;;;2054820;28;20214;-77
2022/03/18 03:42:22;;;;;;;54.38;21.48;;;5.20;99.90;;;;;;2063899;28;20656;-76
2022/03/18 03:43:22;;;;;;;39.80;18.73;;;5.20;99.90;;;;;;2055582;28;20214;-77
2022/03/18 03:44:23;;;;;;;46.57;20.50;;;5.30;99.90;;;;;;2047861;29;20179;-76
2022/03/18 03:45:24;;;;;;;40.37;18.30;;;5.30;99.90;;;;;;2055909;28;20178;-77
2022/03/18 03:46:25;;;;;;;38.90;17.23;;;5.30;99.90;;;;;;2055900;28;20606;-77
2022/03/18 03:47:26;;;;;;;50.67;20.37;;;5.30;99.90;;;;;;2055438;28;20222;-76
2022/03/18 03:48:27;;;;;;;39.90;17.20;;;5.40;99.90;;;;;;2055865;28;20723;-77
2022/03/18 03:49:28;;;;;;;49.28;19.25;;;5.40;99.90;;;;;;2063876;28;20448;-76
2022/03/18 03:50:28;;;;;;;32.07;16.40;;;5.40;99.90;;;;;;2063931;28;20183;-77
2022/03/18 03:51:29;;;;;;;30.93;15.50;;;5.40;99.90;;;;;;2062845;28;20572;-77
2022/03/18 03:52:30;;;;;;;32.10;15.00;;;5.40;99.90;;;;;;2063743;28;20186;-77
2022/03/18 03:53:30;;;;;;;32.47;15.57;;;5.50;99.90;;;;;;2055851;28;20206;-77
2022/03/18 03:54:31;;;;;;;29.67;15.80;;;5.60;99.90;;;;;;2063765;28;20183;-77
2022/03/18 03:55:34;;;;;;;34.30;15.93;;;5.60;99.90;;;;;;2063380;28;20220;-77
2022/03/18 03:56:34;;;;;;;25.95;13.68;;;5.50;99.90;;;;;;2056033;28;20266;-77
2022/03/18 03:57:35;;;;;;;28.27;14.03;;;5.50;99.90;;;;;;2063690;28;20661;-77
2022/03/18 03:58:36;;;;;;;31.20;15.07;;;5.50;99.90;;;;;;2063611;28;20306;-76
2022/03/18 03:59:36;;;;;;;28.37;13.23;;;5.60;99.90;;;;;;2063800;28;20217;-77
2022/03/18 04:00:38;;;;;;;38.73;16.63;;;5.50;99.90;;;;;;2063684;28;20668;-77
2022/03/18 04:01:38;;;;;;;27.88;14.45;;;5.50;99.90;;;;;;2054986;28;20689;-77
2022/03/18 04:02:39;;;;;;;50.13;18.50;;;5.50;99.90;;;;;;2063683;28;20190;-76
2022/03/18 04:03:40;;;;;;;45.60;17.10;;;5.30;99.90;;;;;;2063697;28;20182;-75
2022/03/18 04:04:40;;;;;;;31.70;15.33;;;5.30;99.90;;;;;;2055565;28;20716;-75
2022/03/18 04:05:41;;;;;;;44.10;15.93;;;5.20;99.90;;;;;;2057407;28;20595;-77
2022/03/18 04:06:42;;;;;;;36.73;16.17;;;5.10;99.90;;;;;;2065260;28;20248;-77
2022/03/18 04:07:46;;;;;;;47.80;17.40;;;5.20;99.90;;;;;;2065755;28;20182;-77
2022/03/18 04:08:47;;;;;;;34.25;14.82;;;5.30;99.90;;;;;;2065432;28;20190;-78
2022/03/18 04:09:49;;;;;;;40.00;14.93;;;5.30;99.90;;;;;;2065561;28;20186;-77
2022/03/18 04:10:50;;;;;;;33.58;14.77;;;5.30;99.90;;;;;;2057460;28;20221;-78
2022/03/18 04:11:50;;;;;;;43.93;17.50;;;5.40;99.90;;;;;;2065010;28;20193;-78
2022/03/18 04:12:52;;;;;;;31.90;15.33;;;5.30;99.90;;;;;;2065283;28;20181;-77
2022/03/18 04:13:52;;;;;;;67.10;18.33;;;5.40;99.90;;;;;;2073881;28;20193;-77
2022/03/18 04:14:53;;;;;;;40.00;15.70;;;5.30;99.90;;;;;;2073382;28;20195;-77
2022/03/18 04:15:54;;;;;;;38.93;15.20;;;5.30;99.90;;;;;;2065790;28;20178;-77
2022/03/18 04:16:54;;;;;;;57.70;16.17;;;5.40;99.90;;;;;;2065582;28;20260;-78
2022/03/18 04:17:55;;;;;;;70.07;17.40;;;5.40;99.90;;;;;;2049555;29;20190;-78
2022/03/18 04:18:56;;;;;;;60.20;19.07;;;5.40;99.90;;;;;;2049444;29;20209;-77
2022/03/18 04:19:56;;;;;;;43.73;15.20;;;5.50;99.90;;;;;;2057694;28;20584;-77
2022/03/18 04:20:57;;;;;;;57.17;17.80;;;5.40;99.90;;;;;;2065682;28;20202;-77
2022/03/18 04:21:58;;;;;;;61.60;17.07;;;5.40;99.90;;;;;;2064986;28;20179;-76
2022/03/18 04:22:59;;;;;;;86.83;22.60;;;5.40;99.90;;;;;;2065276;28;20688;-77
2022/03/18 04:23:59;;;;;;;90.70;21.90;;;5.30;99.90;;;;;;2066194;28;20186;-77
2022/03/18 04:25:00;;;;;;;118.83;25.40;;;5.40;99.90;;;;;;2065624;28;20595;-77
2022/03/18 04:26:01;;;;;;;63.03;16.13;;;5.40;99.90;;;;;;2073888;28;20181;-77
2022/03/18 04:27:01;;;;;;;62.47;18.50;;;5.30;99.90;;;;;;2066147;28;20197;-78
2022/03/18 04:28:02;;;;;;;89.10;20.67;;;5.30;99.90;;;;;;2065674;28;20228;-77
2022/03/18 04:29:03;;;;;;;48.37;17.10;;;5.40;99.90;;;;;;2065767;28;20763;-77
2022/03/18 04:30:06;;;;;;;43.83;14.77;;;5.40;99.90;;;;;;2066425;28;20209;-77
2022/03/18 04:31:07;;;;;;;111.18;22.20;;;5.40;99.90;;;;;;2064795;28;20186;-77
2022/03/18 04:32:08;;;;;;;164.47;20.60;;;5.40;99.90;;;;;;2057523;28;20187;-77
2022/03/18 04:33:09;;;;;;;131.00;25.20;;;5.30;99.90;;;;;;2065386;28;20206;-78
2022/03/18 04:34:11;;;;;;;111.57;21.63;;;5.40;99.90;;;;;;2065449;28;20648;-77
2022/03/18 04:35:12;;;;;;;112.97;22.38;;;5.40;99.90;;;;;;2065634;28;20189;-77
2022/03/18 04:36:12;;;;;;;173.80;27.93;;;5.40;99.90;;;;;;2065204;28;20189;-75
2022/03/18 04:37:13;;;;;;;80.37;17.77;;;5.40;99.90;;;;;;2064926;28;20680;-76
2022/03/18 04:38:14;;;;;;;66.87;14.90;;;5.40;99.90;;;;;;2065478;28;20719;-76
2022/03/18 04:39:15;;;;;;;87.17;20.67;;;5.30;99.90;;;;;;2065016;28;20178;-76
2022/03/18 04:40:16;;;;;;;92.77;19.43;;;5.20;99.90;;;;;;2065030;28;20429;-76
2022/03/18 04:41:16;;;;;;;91.07;21.33;;;5.30;99.90;;;;;;2072450;28;20220;-76
2022/03/18 04:42:17;;;;;;;41.30;16.00;;;5.30;99.90;;;;;;2073054;28;20197;-76
2022/03/18 04:43:18;;;;;;;143.80;23.33;;;5.30;99.90;;;;;;2065010;28;20603;-76
2022/03/18 04:44:19;;;;;;;88.33;19.97;;;5.20;99.90;;;;;;2065135;28;20201;-76
2022/03/18 04:45:20;;;;;;;115.57;21.83;;;5.30;99.90;;;;;;2073018;28;20188;-76
2022/03/18 04:46:20;;;;;;;75.47;17.53;;;5.30;99.90;;;;;;2073031;28;20628;-76
2022/03/18 04:47:21;;;;;;;103.47;19.07;;;5.30;99.90;;;;;;2056777;28;20273;-76
2022/03/18 04:48:22;;;;;;;114.60;20.97;;;5.20;99.90;;;;;;2056897;28;20207;-76
2022/03/18 04:49:22;;;;;;;82.30;19.97;;;5.10;99.90;;;;;;2064920;28;20629;-76
2022/03/18 04:50:23;;;;;;;76.87;19.17;;;5.10;99.90;;;;;;2065525;28;20198;-75
2022/03/18 04:51:24;;;;;;;82.57;19.50;;;5.10;99.90;;;;;;2064429;28;20809;-76
2022/03/18 04:52:25;;;;;;;78.83;17.73;;;5.10;99.90;;;;;;2056692;28;20191;-76
2022/03/18 04:53:26;;;;;;;74.77;16.30;;;5.20;99.90;;;;;;2064777;28;20206;-76
2022/03/18 04:54:26;;;;;;;61.87;16.07;;;5.20;99.90;;;;;;2065373;28;20193;-76
2022/03/18 04:55:27;;;;;;;68.60;20.40;;;5.20;99.90;;;;;;2064938;28;20189;-76
2022/03/18 04:57:47;;;;;;;184.50;26.40;;;5.20;99.90;;;;;;2065113;28;20173;-76
2022/03/18 04:58:48;;;;;;;131.63;20.30;;;5.20;99.90;;;;;;2065460;28;20273;-76
2022/03/18 04:59:52;;;;;;;163.18;22.88;;;5.20;99.90;;;;;;2064883;28;20188;-76
2022/03/18 05:00:53;;;;;;;158.40;22.23;;;5.20;99.90;;;;;;2057299;28;20724;-76
2022/03/18 05:01:54;;;;;;;236.53;24.93;;;5.20;99.90;;;;;;2056128;28;20190;-76
2022/03/18 05:02:57;;;;;;;371.77;35.27;;;5.10;99.90;;;;;;2064937;28;20202;-76
2022/03/18 05:03:58;;;;;;;170.13;24.77;;;5.00;99.90;;;;;;2065186;28;20288;-77
2022/03/18 05:04:58;;;;;;;131.93;20.30;;;5.10;99.90;;;;;;2057152;28;20665;-77
2022/03/18 05:06:00;;;;;;;239.93;25.63;;;5.10;99.90;;;;;;2057073;28;20816;-77
2022/03/18 05:07:01;;;;;;;391.05;37.72;;;5.00;99.90;;;;;;2056781;28;20209;-77
2022/03/18 05:08:01;;;;;;;489.70;43.17;;;5.00;99.90;;;;;;2057390;28;20210;-77
2022/03/18 05:09:02;;;;;;;417.70;35.97;;;4.90;99.90;;;;;;2061546;28;20442;-77
2022/03/18 05:10:03;;;;;;;321.10;33.43;;;4.80;99.90;;;;;;2058001;28;20186;-77
2022/03/18 05:11:04;;;;;;;220.40;24.35;;;4.90;99.90;;;;;;2057302;28;20194;-77
2022/03/18 05:12:09;;;;;;;240.23;26.70;;;4.90;99.90;;;;;;2056850;28;20202;-77
2022/03/18 05:13:10;;;;;;;252.25;26.17;;;5.00;99.90;;;;;;2049689;28;20214;-77
2022/03/18 05:14:11;;;;;;;339.90;34.67;;;5.00;99.90;;;;;;2057178;28;20190;-77
2022/03/18 05:15:12;;;;;;;350.27;33.70;;;5.10;99.90;;;;;;2056755;28;20190;-76
2022/03/18 05:16:14;;;;;;;243.70;26.73;;;5.10;99.90;;;;;;2048965;28;20702;-77
2022/03/18 05:17:15;;;;;;;243.32;28.30;;;5.20;99.90;;;;;;2048496;28;20253;-77
2022/03/18 05:18:16;;;;;;;262.93;26.63;;;5.20;99.90;;;;;;2057327;28;20183;-77
2022/03/18 05:19:16;;;;;;;282.27;31.90;;;5.30;99.90;;;;;;2056608;28;20187;-77
2022/03/18 05:20:18;;;;;;;333.17;32.73;;;5.20;99.90;;;;;;2056745;28;20194;-77
2022/03/18 05:21:22;;;;;;;268.08;28.88;;;5.20;99.90;;;;;;2064045;28;20212;-77
2022/03/18 05:22:23;;;;;;;392.88;37.13;;;5.20;99.90;;;;;;2056705;28;20215;-77
2022/03/18 05:23:24;;;;;;;328.40;34.50;;;5.00;99.90;;;;;;2056550;28;20261;-77
2022/03/18 05:24:26;;;;;;;324.52;32.30;;;4.90;99.90;;;;;;2067576;28;20192;-77
2022/03/18 05:25:27;;;;;;;255.35;28.98;;;4.90;99.90;;;;;;2064563;28;20186;-77